createdAt,value
2023-04-17T00:02:46.498Z,17.50
2023-04-17T00:06:44.237Z,18.10
2023-04-17T00:10:42.225Z,17.70
2023-04-17T00:14:40.164Z,16.60
2023-04-17T00:18:38.282Z,16.70
2023-04-17T00:22:36.200Z,16.30
2023-04-17T00:26:34.239Z,17.80
2023-04-17T00:30:32.177Z,15.40
2023-04-17T00:34:30.244Z,16.80
2023-04-17T00:38:28.272Z,15.60
2023-04-17T00:42:26.255Z,16.50
2023-04-17T00:46:24.256Z,17.10
2023-04-17T00:50:22.210Z,17.30
2023-04-17T00:54:20.332Z,17.30
2023-04-17T00:58:18.283Z,18.40
2023-04-17T01:02:16.167Z,19.10
2023-04-17T01:06:14.284Z,18.20
2023-04-17T01:10:12.121Z,17.60
2023-04-17T01:14:10.161Z,17.50
2023-04-17T01:18:08.231Z,18.20
2023-04-17T01:22:06.231Z,18.20
2023-04-17T01:26:04.127Z,20.00
2023-04-17T01:30:02.150Z,19.20
2023-04-17T01:34:07.140Z,19.50
2023-04-17T01:38:05.141Z,18.30
2023-04-17T01:42:03.091Z,17.50
2023-04-17T01:46:01.227Z,18.70
2023-04-17T01:49:59.100Z,17.10
2023-04-17T01:53:57.084Z,17.80
2023-04-17T01:57:55.065Z,18.90
2023-04-17T02:01:53.306Z,18.20
2023-04-17T02:05:51.016Z,19.60
2023-04-17T02:09:49.092Z,17.80
2023-04-17T02:13:47.138Z,18.50
2023-04-17T02:17:45.103Z,18.20
2023-04-17T02:21:43.089Z,18.70
2023-04-17T02:25:41.051Z,17.50
2023-04-17T02:29:39.009Z,19.00
2023-04-17T02:33:38.049Z,18.60
2023-04-17T02:37:36.039Z,17.70
2023-04-17T02:41:34.117Z,19.50
2023-04-17T02:45:31.958Z,18.40
2023-04-17T02:49:30.059Z,18.00
2023-04-17T02:53:28.061Z,17.80
2023-04-17T02:57:26.032Z,18.20
2023-04-17T03:01:24.053Z,19.20
2023-04-17T03:05:21.991Z,18.20
2023-04-17T03:09:20.940Z,17.40
2023-04-17T03:13:19.002Z,18.50
2023-04-17T03:17:17.053Z,17.70
2023-04-17T03:21:14.982Z,18.50
2023-04-17T03:25:13.010Z,18.70
2023-04-17T03:29:15.960Z,18.70
2023-04-17T03:33:13.987Z,19.70
2023-04-17T03:37:11.952Z,18.90
2023-04-17T03:41:09.928Z,20.70
2023-04-17T03:45:07.950Z,19.60
2023-04-17T03:49:05.904Z,19.50
2023-04-17T03:53:03.987Z,20.00
2023-04-17T03:57:02.992Z,20.00
2023-04-17T04:01:02.012Z,19.10
2023-04-17T04:05:01.040Z,19.70
2023-04-17T04:08:58.899Z,20.80
2023-04-17T04:12:56.952Z,20.00
2023-04-17T04:16:55.076Z,20.30
2023-04-17T04:20:52.931Z,21.20
2023-04-17T04:24:54.907Z,20.50
2023-04-17T04:29:06.876Z,21.20
2023-04-17T04:33:26.983Z,20.70
2023-04-17T04:37:28.956Z,23.30
2023-04-17T04:41:33.907Z,22.00
2023-04-17T04:45:31.817Z,22.50
2023-04-17T04:49:29.849Z,22.10
2023-04-17T04:53:27.841Z,23.60
2023-04-17T04:57:25.852Z,22.70
2023-04-17T05:01:24.846Z,23.90
2023-04-17T05:05:22.833Z,20.90
2023-04-17T05:09:20.782Z,22.10
2023-04-17T05:13:19.848Z,21.90
2023-04-17T05:17:18.823Z,22.00
2023-04-17T05:21:16.863Z,22.10
2023-04-17T05:25:14.848Z,20.10
2023-04-17T05:29:13.090Z,21.70
2023-04-17T05:33:10.812Z,21.00
2023-04-17T05:37:13.772Z,20.80
2023-04-17T05:41:13.738Z,20.90
2023-04-17T05:45:11.771Z,19.50
2023-04-17T05:49:09.918Z,20.30
2023-04-17T05:53:07.869Z,18.20
2023-04-17T05:57:23.742Z,17.30
2023-04-17T06:01:06.088Z,17.20
2023-04-17T06:04:31.343Z,18.90
2023-04-17T06:07:55.563Z,17.50
2023-04-17T06:11:19.344Z,16.90
2023-04-17T06:14:44.389Z,18.40
2023-04-17T06:18:08.588Z,18.90
2023-04-17T06:21:33.664Z,18.50
2023-04-17T06:24:57.781Z,17.80
2023-04-17T06:28:21.678Z,17.00
2023-04-17T06:31:47.742Z,17.10
2023-04-17T06:35:13.258Z,13.40
2023-04-17T06:38:42.058Z,12.80
2023-04-17T06:42:09.167Z,15.60
2023-04-17T06:45:36.114Z,12.10
2023-04-17T06:49:03.246Z,14.30
2023-04-17T06:52:27.612Z,9.80
2023-04-17T06:55:53.944Z,11.20
2023-04-17T06:59:19.875Z,10.30
2023-04-17T07:02:44.139Z,11.20
2023-04-17T07:06:09.411Z,10.20
2023-04-17T07:09:33.557Z,10.10
2023-04-17T07:12:57.467Z,9.60
2023-04-17T07:16:23.026Z,9.90
2023-04-17T07:19:47.139Z,10.20
2023-04-17T07:23:11.236Z,9.30
2023-04-17T07:26:35.196Z,9.60
2023-04-17T07:29:59.042Z,8.90
2023-04-17T07:33:22.965Z,8.80
2023-04-17T07:36:47.613Z,8.50
2023-04-17T07:40:11.946Z,8.70
2023-04-17T07:43:35.826Z,8.70
2023-04-17T07:46:59.575Z,8.20
2023-04-17T07:50:23.919Z,8.10
2023-04-17T07:53:47.886Z,7.80
2023-04-17T07:57:11.973Z,7.60
2023-04-17T08:00:35.900Z,7.30
2023-04-17T08:04:00.114Z,8.00
2023-04-17T08:07:24.431Z,8.50
2023-04-17T08:10:48.200Z,7.90
2023-04-17T08:14:12.697Z,8.10
2023-04-17T08:17:36.839Z,8.80
2023-04-17T08:21:01.714Z,8.00
2023-04-17T08:24:25.972Z,7.80
2023-04-17T08:27:49.862Z,7.60
2023-04-17T08:31:13.994Z,7.90
2023-04-17T08:34:38.935Z,8.30
2023-04-17T08:38:03.034Z,8.80
2023-04-17T08:41:34.331Z,8.90
2023-04-17T08:45:02.157Z,7.70
2023-04-17T08:48:26.129Z,8.10
2023-04-17T08:51:50.109Z,8.70
2023-04-17T08:55:19.991Z,7.80
2023-04-17T08:58:44.010Z,7.70
2023-04-17T09:02:09.381Z,8.30
2023-04-17T09:05:34.456Z,9.10
2023-04-17T09:09:01.729Z,11.10
2023-04-17T09:12:27.328Z,8.50
2023-04-17T09:19:29.102Z,9.10
2023-04-17T09:23:04.376Z,8.30
2023-04-17T09:26:32.118Z,7.80
2023-04-17T09:30:00.199Z,8.10
2023-04-17T09:33:24.153Z,8.40
2023-04-17T09:36:48.077Z,8.40
2023-04-17T09:40:12.389Z,8.40
2023-04-17T09:43:43.377Z,8.50
2023-04-17T09:47:08.887Z,8.20
2023-04-17T09:54:00.173Z,8.70
2023-04-17T09:57:24.095Z,8.50
2023-04-17T10:00:48.718Z,8.60
2023-04-17T10:04:13.261Z,8.40
2023-04-17T10:07:39.328Z,8.10
2023-04-17T10:11:08.453Z,7.60
2023-04-17T10:14:36.469Z,8.30
2023-04-17T10:18:28.026Z,8.90
2023-04-17T10:22:18.073Z,8.80
2023-04-17T10:25:41.928Z,8.60
2023-04-17T10:29:06.137Z,8.20
2023-04-17T10:32:31.630Z,8.20
2023-04-17T10:35:56.451Z,8.60
2023-04-17T10:39:20.486Z,9.10
2023-04-17T10:43:07.883Z,9.30
2023-04-17T10:46:31.758Z,9.00
2023-04-17T10:49:58.441Z,8.90
2023-04-17T10:53:42.435Z,9.00
2023-04-17T10:57:11.128Z,9.10
2023-04-17T11:00:38.231Z,8.60
2023-04-17T11:04:02.400Z,9.60
2023-04-17T11:07:27.570Z,9.70
2023-04-17T11:10:56.872Z,9.70
2023-04-17T11:14:23.127Z,10.30
2023-04-17T11:17:48.689Z,9.40
2023-04-17T11:21:16.670Z,9.70
2023-04-17T11:24:40.587Z,9.60
2023-04-17T11:28:07.478Z,10.30
2023-04-17T11:31:31.747Z,11.60
2023-04-17T11:34:56.714Z,10.90
2023-04-17T11:38:23.302Z,11.30
2023-04-17T11:41:47.603Z,10.80
2023-04-17T11:45:12.288Z,14.90
2023-04-17T11:48:36.153Z,12.20
2023-04-17T11:52:05.614Z,15.30
2023-04-17T11:55:31.657Z,12.00
2023-04-17T11:58:57.943Z,15.50
2023-04-17T12:02:34.149Z,11.40
2023-04-17T12:06:02.730Z,14.00
2023-04-17T12:09:32.083Z,11.80
2023-04-17T12:12:56.692Z,13.80
2023-04-17T12:16:20.809Z,11.20
2023-04-17T12:19:45.370Z,12.90
2023-04-17T12:23:09.448Z,10.60
2023-04-17T12:26:33.303Z,11.00
2023-04-17T12:29:57.116Z,10.50
2023-04-17T12:33:20.996Z,10.30
2023-04-17T12:36:44.871Z,11.70
2023-04-17T12:40:11.969Z,11.30
2023-04-17T12:43:35.867Z,12.80
2023-04-17T12:46:59.734Z,10.40
2023-04-17T12:50:23.538Z,10.10
2023-04-17T12:53:47.904Z,11.90
2023-04-17T12:57:11.722Z,13.20
2023-04-17T13:00:36.379Z,10.10
2023-04-17T13:04:00.621Z,12.50
2023-04-17T13:07:24.895Z,9.10
2023-04-17T13:10:48.736Z,11.50
2023-04-17T13:14:13.284Z,10.10
2023-04-17T13:17:37.419Z,12.10
2023-04-17T13:21:01.308Z,11.00
2023-04-17T13:24:25.408Z,9.40
2023-04-17T13:27:49.502Z,10.70
2023-04-17T13:31:34.255Z,8.60
2023-04-17T13:35:32.224Z,11.20
2023-04-17T13:39:30.205Z,7.20
2023-04-17T13:43:28.204Z,10.60
2023-04-17T13:47:27.290Z,9.20
2023-04-17T13:51:25.288Z,9.70
2023-04-17T13:55:24.197Z,10.40
2023-04-17T13:59:22.260Z,9.70
2023-04-17T14:03:20.392Z,8.90
2023-04-17T14:07:25.197Z,8.70
2023-04-17T14:11:24.203Z,7.90
2023-04-17T14:15:22.229Z,6.70
2023-04-17T14:19:20.354Z,9.00
2023-04-17T14:23:19.178Z,10.40
2023-04-17T14:27:17.157Z,8.70
2023-04-17T14:31:15.193Z,9.60
2023-04-17T14:35:13.209Z,8.30
2023-04-17T14:39:11.598Z,8.30
2023-04-17T14:43:09.210Z,8.90
2023-04-17T14:47:07.222Z,7.80
2023-04-17T14:51:06.167Z,8.90
2023-04-17T14:55:04.220Z,9.60
2023-04-17T14:59:02.236Z,8.40
2023-04-17T15:03:00.335Z,7.90
2023-04-17T15:06:58.154Z,8.90
2023-04-17T15:10:56.234Z,6.80
2023-04-17T15:14:54.108Z,7.40
2023-04-17T15:18:52.194Z,6.90
2023-04-17T15:22:50.134Z,7.80
2023-04-17T15:26:48.072Z,7.80
2023-04-17T15:30:46.128Z,7.40
2023-04-17T15:34:44.111Z,7.40
2023-04-17T15:38:42.115Z,7.50
2023-04-17T15:42:40.081Z,8.40
2023-04-17T15:46:38.111Z,8.10
2023-04-17T15:50:36.041Z,8.20
2023-04-17T15:54:34.103Z,8.20
2023-04-17T15:58:32.199Z,8.00
2023-04-17T16:02:30.124Z,7.70
2023-04-17T16:06:28.042Z,8.50
2023-04-17T16:10:29.025Z,7.90
2023-04-17T16:14:27.085Z,9.40
2023-04-17T16:18:24.983Z,10.50
2023-04-17T16:22:23.022Z,9.90
2023-04-17T16:26:22.033Z,9.60
2023-04-17T16:30:21.019Z,8.90
2023-04-17T16:34:21.009Z,9.00
2023-04-17T16:38:18.967Z,8.30
2023-04-17T16:42:16.949Z,8.30
2023-04-17T16:46:23.913Z,8.40
2023-04-17T16:50:25.976Z,9.10
2023-04-17T16:54:25.081Z,9.20
2023-04-17T16:58:22.963Z,7.70
2023-04-17T17:02:23.505Z,9.30
2023-04-17T17:06:21.052Z,8.90
2023-04-17T17:10:18.952Z,9.20
2023-04-17T17:14:16.957Z,9.20
2023-04-17T17:18:14.933Z,8.90
2023-04-17T17:22:12.985Z,9.50
2023-04-17T17:26:10.995Z,9.70
2023-04-17T17:30:09.906Z,9.70
2023-04-17T17:38:13.908Z,10.00
2023-04-17T17:42:15.374Z,10.20
2023-04-17T17:46:12.969Z,10.30
2023-04-17T17:50:10.918Z,9.40
2023-04-17T17:54:08.901Z,11.80
2023-04-17T17:58:06.986Z,11.50
2023-04-17T18:02:05.272Z,11.60
2023-04-17T18:06:02.966Z,11.20
2023-04-17T18:10:00.882Z,11.30
2023-04-17T18:13:58.867Z,11.90
2023-04-17T18:17:56.945Z,12.80
2023-04-17T18:21:54.960Z,12.60
2023-04-17T18:25:52.935Z,13.20
2023-04-17T18:29:50.835Z,12.50
2023-04-17T18:33:48.829Z,11.20
2023-04-17T18:37:49.993Z,12.10
2023-04-17T18:41:47.842Z,13.30
2023-04-17T18:45:45.968Z,13.20
2023-04-17T18:49:43.835Z,12.80
2023-04-17T18:53:42.894Z,13.80
2023-04-17T18:57:40.869Z,12.90
2023-04-17T19:01:38.819Z,13.80
2023-04-17T19:05:37.009Z,13.90
2023-04-17T19:09:34.907Z,14.20
2023-04-17T19:13:32.880Z,14.00
2023-04-17T19:17:30.900Z,14.40
2023-04-17T19:21:28.816Z,13.90
2023-04-17T19:25:27.840Z,13.60
2023-04-17T19:29:25.841Z,14.50
2023-04-17T19:33:23.772Z,15.40
2023-04-17T19:37:21.761Z,15.80
2023-04-17T19:41:28.864Z,15.00
2023-04-17T19:45:27.818Z,15.20
2023-04-17T19:49:25.847Z,15.60
2023-04-17T19:53:23.727Z,14.90
2023-04-17T19:57:22.745Z,15.70
2023-04-17T20:01:20.823Z,15.50
2023-04-17T20:05:18.797Z,16.20
2023-04-17T20:09:18.109Z,15.80
2023-04-17T20:13:15.753Z,16.50
2023-04-17T20:17:13.744Z,16.90
2023-04-17T20:21:12.860Z,17.10
2023-04-17T20:25:10.716Z,17.30
2023-04-17T20:29:08.722Z,16.30
2023-04-17T20:33:06.860Z,17.60
2023-04-17T20:37:04.775Z,18.90
2023-04-17T20:41:02.747Z,18.20
2023-04-17T20:45:01.866Z,18.90
2023-04-17T20:48:59.738Z,19.70
2023-04-17T20:52:57.696Z,19.80
2023-04-17T20:56:55.690Z,21.20
2023-04-17T21:01:00.838Z,21.20
2023-04-17T21:04:59.753Z,20.70
2023-04-17T21:08:57.738Z,21.80
2023-04-17T21:12:55.736Z,23.10
2023-04-17T21:16:53.677Z,22.10
2023-04-17T21:20:54.612Z,21.70
2023-04-17T21:24:52.709Z,23.70
2023-04-17T21:28:53.656Z,22.40
2023-04-17T21:32:51.772Z,23.80
2023-04-17T21:36:49.626Z,22.70
2023-04-17T21:40:51.324Z,22.40
2023-04-17T21:44:49.582Z,23.20
2023-04-17T21:48:47.752Z,24.40
2023-04-17T21:52:45.574Z,24.10
2023-04-17T21:56:43.613Z,24.10
2023-04-17T22:00:41.700Z,23.60
2023-04-17T22:04:41.599Z,23.10
2023-04-17T22:08:39.557Z,24.90
2023-04-17T22:12:37.579Z,22.20
2023-04-17T22:16:35.548Z,24.50
2023-04-17T22:20:34.576Z,22.30
2023-04-17T22:24:33.694Z,21.70
2023-04-17T22:28:32.757Z,22.90
2023-04-17T22:32:30.557Z,23.70
2023-04-17T22:36:29.540Z,23.00
2023-04-17T22:40:27.615Z,23.30
2023-04-17T22:44:25.609Z,21.10
2023-04-17T22:48:24.639Z,22.30
2023-04-17T22:52:22.676Z,21.50
2023-04-17T22:56:22.502Z,20.20
2023-04-17T23:00:22.539Z,20.20
2023-04-17T23:04:20.610Z,20.50
2023-04-17T23:08:18.480Z,20.00
2023-04-17T23:12:16.457Z,20.80
2023-04-17T23:16:15.991Z,19.50
2023-04-17T23:20:15.592Z,19.60
2023-04-17T23:24:13.670Z,19.20
2023-04-17T23:28:11.446Z,19.40
2023-04-17T23:32:11.472Z,19.90
2023-04-17T23:36:09.479Z,20.50
2023-04-17T23:40:07.530Z,20.20
2023-04-17T23:44:05.432Z,18.10
2023-04-17T23:48:03.494Z,17.80
2023-04-17T23:52:01.607Z,19.20
2023-04-17T23:55:59.577Z,18.30
2023-04-17T23:59:58.451Z,17.20
